sensor_id;sensor_type;location;lat;lon;timestamp;P1;durP1;ratioP1;P2;durP2;ratioP2
17943;SDS011;9097;47.028;15.444;2022-12-10T00:00:42;17.60;;;6.53;;
17943;SDS011;9097;47.028;15.444;2022-12-10T00:03:45;14.37;;;7.43;;
17943;SDS011;9097;47.028;15.444;2022-12-10T00:06:49;13.63;;;6.73;;
17943;SDS011;9097;47.028;15.444;2022-12-10T00:09:52;20.30;;;6.33;;
17943;SDS011;9097;47.028;15.444;2022-12-10T00:12:55;19.80;;;7.07;;
17943;SDS011;9097;47.028;15.444;2022-12-10T00:15:58;16.90;;;7.33;;
17943;SDS011;9097;47.028;15.444;2022-12-10T00:19:01;27.87;;;8.07;;
17943;SDS011;9097;47.028;15.444;2022-12-10T00:22:06;14.67;;;8.27;;
17943;SDS011;9097;47.028;15.444;2022-12-10T00:25:09;17.13;;;7.77;;
17943;SDS011;9097;47.028;15.444;2022-12-10T00:28:12;22.10;;;8.90;;
17943;SDS011;9097;47.028;15.444;2022-12-10T00:31:16;26.00;;;7.13;;
17943;SDS011;9097;47.028;15.444;2022-12-10T00:34:20;11.60;;;6.00;;
17943;SDS011;9097;47.028;15.444;2022-12-10T00:37:23;18.47;;;7.43;;
17943;SDS011;9097;47.028;15.444;2022-12-10T00:40:27;13.10;;;5.97;;
17943;SDS011;9097;47.028;15.444;2022-12-10T00:43:30;14.43;;;7.53;;
17943;SDS011;9097;47.028;15.444;2022-12-10T00:46:32;15.10;;;6.90;;
17943;SDS011;9097;47.028;15.444;2022-12-10T00:49:35;21.13;;;10.27;;
17943;SDS011;9097;47.028;15.444;2022-12-10T00:52:39;22.93;;;8.37;;
17943;SDS011;9097;47.028;15.444;2022-12-10T00:55:42;18.90;;;8.33;;
17943;SDS011;9097;47.028;15.444;2022-12-10T00:58:45;17.17;;;6.27;;
17943;SDS011;9097;47.028;15.444;2022-12-10T01:01:49;25.17;;;9.07;;
17943;SDS011;9097;47.028;15.444;2022-12-10T01:04:52;19.73;;;6.20;;
17943;SDS011;9097;47.028;15.444;2022-12-10T01:07:57;21.20;;;7.63;;
17943;SDS011;9097;47.028;15.444;2022-12-10T01:10:59;12.03;;;6.07;;
17943;SDS011;9097;47.028;15.444;2022-12-10T01:14:02;16.40;;;6.37;;
17943;SDS011;9097;47.028;15.444;2022-12-10T01:17:06;20.40;;;7.63;;
17943;SDS011;9097;47.028;15.444;2022-12-10T01:20:09;20.40;;;8.27;;
17943;SDS011;9097;47.028;15.444;2022-12-10T01:23:13;27.77;;;10.83;;
17943;SDS011;9097;47.028;15.444;2022-12-10T01:26:16;12.07;;;6.33;;
17943;SDS011;9097;47.028;15.444;2022-12-10T01:29:21;14.97;;;6.07;;
17943;SDS011;9097;47.028;15.444;2022-12-10T01:32:23;11.60;;;6.67;;
17943;SDS011;9097;47.028;15.444;2022-12-10T01:35:26;17.23;;;6.87;;
17943;SDS011;9097;47.028;15.444;2022-12-10T01:38:29;13.23;;;6.63;;
17943;SDS011;9097;47.028;15.444;2022-12-10T01:41:32;12.87;;;5.37;;
17943;SDS011;9097;47.028;15.444;2022-12-10T01:44:57;9.77;;;4.70;;
17943;SDS011;9097;47.028;15.444;2022-12-10T01:48:09;17.10;;;7.47;;
17943;SDS011;9097;47.028;15.444;2022-12-10T01:51:12;9.57;;;5.47;;
17943;SDS011;9097;47.028;15.444;2022-12-10T01:54:18;8.03;;;5.33;;
17943;SDS011;9097;47.028;15.444;2022-12-10T01:57:24;19.50;;;6.80;;
17943;SDS011;9097;47.028;15.444;2022-12-10T02:00:28;15.83;;;6.87;;
17943;SDS011;9097;47.028;15.444;2022-12-10T02:03:34;16.50;;;6.57;;
17943;SDS011;9097;47.028;15.444;2022-12-10T02:06:44;9.83;;;5.30;;
17943;SDS011;9097;47.028;15.444;2022-12-10T02:09:55;13.43;;;5.23;;
17943;SDS011;9097;47.028;15.444;2022-12-10T02:13:05;16.97;;;7.03;;
17943;SDS011;9097;47.028;15.444;2022-12-10T02:16:12;10.50;;;5.53;;
17943;SDS011;9097;47.028;15.444;2022-12-10T02:19:19;14.53;;;6.50;;
17943;SDS011;9097;47.028;15.444;2022-12-10T02:22:30;16.80;;;7.80;;
17943;SDS011;9097;47.028;15.444;2022-12-10T02:25:39;10.40;;;5.47;;
17943;SDS011;9097;47.028;15.444;2022-12-10T02:28:48;15.23;;;6.33;;
17943;SDS011;9097;47.028;15.444;2022-12-10T02:32:01;17.13;;;6.17;;
17943;SDS011;9097;47.028;15.444;2022-12-10T02:35:09;15.30;;;6.57;;
17943;SDS011;9097;47.028;15.444;2022-12-10T02:38:15;19.70;;;7.57;;
17943;SDS011;9097;47.028;15.444;2022-12-10T02:41:22;18.83;;;7.10;;
17943;SDS011;9097;47.028;15.444;2022-12-10T02:44:28;13.10;;;5.27;;
17943;SDS011;9097;47.028;15.444;2022-12-10T02:47:33;13.50;;;5.73;;
17943;SDS011;9097;47.028;15.444;2022-12-10T02:50:37;17.57;;;7.73;;
17943;SDS011;9097;47.028;15.444;2022-12-10T02:53:41;16.90;;;5.53;;
17943;SDS011;9097;47.028;15.444;2022-12-10T02:56:44;14.50;;;6.63;;
17943;SDS011;9097;47.028;15.444;2022-12-10T02:59:59;14.30;;;6.10;;
17943;SDS011;9097;47.028;15.444;2022-12-10T03:03:24;15.70;;;5.67;;
17943;SDS011;9097;47.028;15.444;2022-12-10T03:06:34;12.30;;;6.63;;
17943;SDS011;9097;47.028;15.444;2022-12-10T03:09:43;14.70;;;6.50;;
17943;SDS011;9097;47.028;15.444;2022-12-10T03:12:51;15.47;;;6.83;;
17943;SDS011;9097;47.028;15.444;2022-12-10T03:15:58;12.27;;;7.33;;
17943;SDS011;9097;47.028;15.444;2022-12-10T03:19:04;12.40;;;6.50;;
17943;SDS011;9097;47.028;15.444;2022-12-10T03:22:09;13.37;;;6.93;;
17943;SDS011;9097;47.028;15.444;2022-12-10T03:25:16;15.20;;;5.97;;
17943;SDS011;9097;47.028;15.444;2022-12-10T03:28:21;16.20;;;6.73;;
17943;SDS011;9097;47.028;15.444;2022-12-10T03:31:26;15.10;;;6.73;;
17943;SDS011;9097;47.028;15.444;2022-12-10T03:34:31;16.90;;;8.17;;
17943;SDS011;9097;47.028;15.444;2022-12-10T03:37:35;15.70;;;7.13;;
17943;SDS011;9097;47.028;15.444;2022-12-10T03:40:38;17.40;;;7.50;;
17943;SDS011;9097;47.028;15.444;2022-12-10T03:43:51;16.73;;;5.60;;
17943;SDS011;9097;47.028;15.444;2022-12-10T03:46:55;11.03;;;6.23;;
17943;SDS011;9097;47.028;15.444;2022-12-10T03:49:59;23.23;;;8.57;;
17943;SDS011;9097;47.028;15.444;2022-12-10T03:53:01;17.87;;;6.30;;
17943;SDS011;9097;47.028;15.444;2022-12-10T03:56:05;10.17;;;5.80;;
17943;SDS011;9097;47.028;15.444;2022-12-10T03:59:07;8.03;;;5.30;;
17943;SDS011;9097;47.028;15.444;2022-12-10T04:02:11;15.20;;;6.40;;
17943;SDS011;9097;47.028;15.444;2022-12-10T04:05:15;16.80;;;6.30;;
17943;SDS011;9097;47.028;15.444;2022-12-10T04:08:19;14.33;;;6.83;;
17943;SDS011;9097;47.028;15.444;2022-12-10T04:11:21;17.53;;;8.00;;
17943;SDS011;9097;47.028;15.444;2022-12-10T04:14:25;10.60;;;6.43;;
17943;SDS011;9097;47.028;15.444;2022-12-10T04:17:45;12.93;;;6.10;;
17943;SDS011;9097;47.028;15.444;2022-12-10T04:20:49;15.50;;;6.90;;
17943;SDS011;9097;47.028;15.444;2022-12-10T04:24:09;16.07;;;6.23;;
17943;SDS011;9097;47.028;15.444;2022-12-10T04:27:30;14.67;;;7.07;;
17943;SDS011;9097;47.028;15.444;2022-12-10T04:30:34;10.90;;;6.50;;
17943;SDS011;9097;47.028;15.444;2022-12-10T04:33:36;16.33;;;6.17;;
17943;SDS011;9097;47.028;15.444;2022-12-10T04:36:40;15.77;;;8.17;;
17943;SDS011;9097;47.028;15.444;2022-12-10T04:39:43;9.20;;;5.87;;
17943;SDS011;9097;47.028;15.444;2022-12-10T04:42:46;13.67;;;6.63;;
17943;SDS011;9097;47.028;15.444;2022-12-10T04:45:48;12.30;;;5.37;;
17943;SDS011;9097;47.028;15.444;2022-12-10T04:48:50;16.97;;;6.07;;
17943;SDS011;9097;47.028;15.444;2022-12-10T04:51:54;14.67;;;6.17;;
17943;SDS011;9097;47.028;15.444;2022-12-10T04:54:57;11.27;;;5.70;;
17943;SDS011;9097;47.028;15.444;2022-12-10T04:57:59;17.00;;;7.57;;
17943;SDS011;9097;47.028;15.444;2022-12-10T05:01:02;13.27;;;7.13;;
17943;SDS011;9097;47.028;15.444;2022-12-10T05:04:07;11.13;;;5.33;;
17943;SDS011;9097;47.028;15.444;2022-12-10T05:07:13;14.27;;;6.07;;
17943;SDS011;9097;47.028;15.444;2022-12-10T05:10:16;16.80;;;5.83;;
17943;SDS011;9097;47.028;15.444;2022-12-10T05:13:20;11.00;;;6.83;;
17943;SDS011;9097;47.028;15.444;2022-12-10T05:16:24;17.20;;;6.73;;
17943;SDS011;9097;47.028;15.444;2022-12-10T05:19:30;11.83;;;6.07;;
17943;SDS011;9097;47.028;15.444;2022-12-10T05:22:34;10.80;;;5.87;;
17943;SDS011;9097;47.028;15.444;2022-12-10T05:25:59;13.73;;;6.63;;
17943;SDS011;9097;47.028;15.444;2022-12-10T05:29:03;12.27;;;5.27;;
17943;SDS011;9097;47.028;15.444;2022-12-10T05:32:06;9.77;;;5.50;;
17943;SDS011;9097;47.028;15.444;2022-12-10T05:35:08;14.33;;;6.50;;
17943;SDS011;9097;47.028;15.444;2022-12-10T05:38:12;9.03;;;5.03;;
17943;SDS011;9097;47.028;15.444;2022-12-10T05:41:16;13.03;;;4.13;;
17943;SDS011;9097;47.028;15.444;2022-12-10T05:44:21;9.97;;;5.83;;
17943;SDS011;9097;47.028;15.444;2022-12-10T05:47:23;10.27;;;5.37;;
17943;SDS011;9097;47.028;15.444;2022-12-10T05:50:26;14.03;;;6.43;;
17943;SDS011;9097;47.028;15.444;2022-12-10T05:53:30;10.93;;;5.93;;
17943;SDS011;9097;47.028;15.444;2022-12-10T05:56:34;11.97;;;6.50;;
17943;SDS011;9097;47.028;15.444;2022-12-10T05:59:37;10.70;;;5.47;;
17943;SDS011;9097;47.028;15.444;2022-12-10T06:02:39;7.57;;;4.43;;
17943;SDS011;9097;47.028;15.444;2022-12-10T06:05:41;10.37;;;5.73;;
17943;SDS011;9097;47.028;15.444;2022-12-10T06:08:45;13.57;;;6.77;;
17943;SDS011;9097;47.028;15.444;2022-12-10T06:11:49;15.10;;;5.97;;
17943;SDS011;9097;47.028;15.444;2022-12-10T06:14:53;12.97;;;6.83;;
17943;SDS011;9097;47.028;15.444;2022-12-10T06:17:55;12.73;;;5.73;;
17943;SDS011;9097;47.028;15.444;2022-12-10T06:20:58;18.20;;;7.47;;
17943;SDS011;9097;47.028;15.444;2022-12-10T06:24:06;10.53;;;5.17;;
17943;SDS011;9097;47.028;15.444;2022-12-10T06:27:09;11.97;;;6.37;;
17943;SDS011;9097;47.028;15.444;2022-12-10T06:30:12;5.97;;;3.93;;
17943;SDS011;9097;47.028;15.444;2022-12-10T06:33:14;8.53;;;5.57;;
17943;SDS011;9097;47.028;15.444;2022-12-10T06:36:19;16.27;;;6.20;;
17943;SDS011;9097;47.028;15.444;2022-12-10T06:39:23;13.80;;;6.00;;
17943;SDS011;9097;47.028;15.444;2022-12-10T06:42:27;11.43;;;7.20;;
17943;SDS011;9097;47.028;15.444;2022-12-10T06:45:29;10.33;;;5.63;;
17943;SDS011;9097;47.028;15.444;2022-12-10T06:48:32;12.70;;;4.97;;
17943;SDS011;9097;47.028;15.444;2022-12-10T06:54:45;9.80;;;5.07;;
17943;SDS011;9097;47.028;15.444;2022-12-10T06:57:50;9.23;;;5.03;;
17943;SDS011;9097;47.028;15.444;2022-12-10T07:00:54;20.27;;;6.27;;
17943;SDS011;9097;47.028;15.444;2022-12-10T07:03:57;10.90;;;6.27;;
17943;SDS011;9097;47.028;15.444;2022-12-10T07:07:00;10.07;;;5.43;;
17943;SDS011;9097;47.028;15.444;2022-12-10T07:10:05;12.73;;;6.00;;
17943;SDS011;9097;47.028;15.444;2022-12-10T07:13:08;16.43;;;6.80;;
17943;SDS011;9097;47.028;15.444;2022-12-10T07:16:13;15.80;;;5.80;;
17943;SDS011;9097;47.028;15.444;2022-12-10T07:19:16;17.80;;;7.20;;
17943;SDS011;9097;47.028;15.444;2022-12-10T07:22:20;16.50;;;6.03;;
17943;SDS011;9097;47.028;15.444;2022-12-10T07:25:24;15.07;;;6.50;;
17943;SDS011;9097;47.028;15.444;2022-12-10T07:28:28;21.30;;;6.77;;
17943;SDS011;9097;47.028;15.444;2022-12-10T07:31:30;13.07;;;5.63;;
17943;SDS011;9097;47.028;15.444;2022-12-10T07:34:33;14.07;;;7.73;;
17943;SDS011;9097;47.028;15.444;2022-12-10T07:37:38;9.43;;;5.63;;
17943;SDS011;9097;47.028;15.444;2022-12-10T07:40:41;16.03;;;6.80;;
17943;SDS011;9097;47.028;15.444;2022-12-10T07:43:45;12.33;;;6.00;;
17943;SDS011;9097;47.028;15.444;2022-12-10T07:46:48;15.77;;;5.83;;
17943;SDS011;9097;47.028;15.444;2022-12-10T07:49:53;12.10;;;6.27;;
17943;SDS011;9097;47.028;15.444;2022-12-10T07:52:55;9.27;;;5.43;;
17943;SDS011;9097;47.028;15.444;2022-12-10T07:56:00;13.03;;;5.97;;
17943;SDS011;9097;47.028;15.444;2022-12-10T07:59:03;11.50;;;5.47;;
17943;SDS011;9097;47.028;15.444;2022-12-10T08:02:07;11.47;;;6.57;;
17943;SDS011;9097;47.028;15.444;2022-12-10T08:05:09;12.43;;;6.43;;
17943;SDS011;9097;47.028;15.444;2022-12-10T08:08:13;15.30;;;7.00;;
17943;SDS011;9097;47.028;15.444;2022-12-10T08:11:18;15.10;;;6.83;;
17943;SDS011;9097;47.028;15.444;2022-12-10T08:14:22;12.10;;;6.17;;
17943;SDS011;9097;47.028;15.444;2022-12-10T08:17:24;8.67;;;5.13;;
17943;SDS011;9097;47.028;15.444;2022-12-10T08:20:27;19.27;;;6.70;;
17943;SDS011;9097;47.028;15.444;2022-12-10T08:23:30;12.03;;;5.47;;
17943;SDS011;9097;47.028;15.444;2022-12-10T08:26:34;12.23;;;6.10;;
17943;SDS011;9097;47.028;15.444;2022-12-10T08:29:38;16.93;;;7.73;;
17943;SDS011;9097;47.028;15.444;2022-12-10T08:32:41;12.63;;;5.53;;
17943;SDS011;9097;47.028;15.444;2022-12-10T08:35:44;8.97;;;4.77;;
17943;SDS011;9097;47.028;15.444;2022-12-10T08:38:47;7.93;;;4.40;;
17943;SDS011;9097;47.028;15.444;2022-12-10T08:41:51;9.10;;;5.03;;
17943;SDS011;9097;47.028;15.444;2022-12-10T08:44:53;12.27;;;4.77;;
17943;SDS011;9097;47.028;15.444;2022-12-10T08:47:56;8.93;;;4.47;;
17943;SDS011;9097;47.028;15.444;2022-12-10T08:50:59;9.43;;;4.07;;
17943;SDS011;9097;47.028;15.444;2022-12-10T08:54:02;10.33;;;4.63;;
17943;SDS011;9097;47.028;15.444;2022-12-10T08:57:07;6.97;;;3.83;;
17943;SDS011;9097;47.028;15.444;2022-12-10T09:00:10;4.10;;;2.80;;
17943;SDS011;9097;47.028;15.444;2022-12-10T09:03:14;17.37;;;4.00;;
17943;SDS011;9097;47.028;15.444;2022-12-10T09:06:18;6.23;;;2.63;;
17943;SDS011;9097;47.028;15.444;2022-12-10T09:09:22;8.50;;;2.63;;
17943;SDS011;9097;47.028;15.444;2022-12-10T09:12:26;7.63;;;4.13;;
17943;SDS011;9097;47.028;15.444;2022-12-10T09:15:29;14.03;;;4.57;;
17943;SDS011;9097;47.028;15.444;2022-12-10T09:18:32;4.17;;;3.70;;
17943;SDS011;9097;47.028;15.444;2022-12-10T09:21:36;8.37;;;3.67;;
17943;SDS011;9097;47.028;15.444;2022-12-10T09:24:39;5.77;;;3.10;;
17943;SDS011;9097;47.028;15.444;2022-12-10T09:27:43;3.33;;;2.50;;
17943;SDS011;9097;47.028;15.444;2022-12-10T09:30:54;4.83;;;3.80;;
17943;SDS011;9097;47.028;15.444;2022-12-10T09:33:57;7.70;;;2.97;;
17943;SDS011;9097;47.028;15.444;2022-12-10T09:37:00;4.17;;;2.30;;
17943;SDS011;9097;47.028;15.444;2022-12-10T09:40:03;5.97;;;3.00;;
17943;SDS011;9097;47.028;15.444;2022-12-10T09:43:10;7.93;;;2.63;;
17943;SDS011;9097;47.028;15.444;2022-12-10T09:46:19;8.20;;;3.83;;
17943;SDS011;9097;47.028;15.444;2022-12-10T09:49:30;4.90;;;3.30;;
17943;SDS011;9097;47.028;15.444;2022-12-10T09:52:41;4.07;;;2.33;;
17943;SDS011;9097;47.028;15.444;2022-12-10T09:55:46;4.00;;;2.10;;
17943;SDS011;9097;47.028;15.444;2022-12-10T09:58:52;10.23;;;2.43;;
17943;SDS011;9097;47.028;15.444;2022-12-10T10:01:59;4.27;;;1.23;;
17943;SDS011;9097;47.028;15.444;2022-12-10T10:05:09;4.07;;;2.03;;
17943;SDS011;9097;47.028;15.444;2022-12-10T10:08:17;3.80;;;2.20;;
17943;SDS011;9097;47.028;15.444;2022-12-10T10:11:30;6.53;;;2.17;;
17943;SDS011;9097;47.028;15.444;2022-12-10T10:14:37;2.53;;;1.73;;
17943;SDS011;9097;47.028;15.444;2022-12-10T10:17:39;2.80;;;2.07;;
17943;SDS011;9097;47.028;15.444;2022-12-10T10:20:47;7.97;;;1.43;;
17943;SDS011;9097;47.028;15.444;2022-12-10T10:23:50;2.27;;;1.43;;
17943;SDS011;9097;47.028;15.444;2022-12-10T10:26:56;3.70;;;2.07;;
17943;SDS011;9097;47.028;15.444;2022-12-10T10:30:04;1.80;;;1.67;;
17943;SDS011;9097;47.028;15.444;2022-12-10T10:33:09;4.03;;;2.30;;
17943;SDS011;9097;47.028;15.444;2022-12-10T10:36:14;2.73;;;1.63;;
17943;SDS011;9097;47.028;15.444;2022-12-10T10:39:26;4.03;;;2.37;;
17943;SDS011;9097;47.028;15.444;2022-12-10T10:42:34;3.70;;;1.50;;
17943;SDS011;9097;47.028;15.444;2022-12-10T10:45:41;3.47;;;1.73;;
17943;SDS011;9097;47.028;15.444;2022-12-10T10:48:45;3.27;;;1.63;;
17943;SDS011;9097;47.028;15.444;2022-12-10T10:51:47;2.27;;;1.77;;
17943;SDS011;9097;47.028;15.444;2022-12-10T10:54:50;5.27;;;1.50;;
17943;SDS011;9097;47.028;15.444;2022-12-10T10:57:54;1.60;;;1.50;;
17943;SDS011;9097;47.028;15.444;2022-12-10T11:00:59;3.37;;;2.50;;
17943;SDS011;9097;47.028;15.444;2022-12-10T11:04:03;2.90;;;2.00;;
17943;SDS011;9097;47.028;15.444;2022-12-10T11:07:11;4.53;;;2.60;;
17943;SDS011;9097;47.028;15.444;2022-12-10T11:10:19;5.53;;;1.77;;
17943;SDS011;9097;47.028;15.444;2022-12-10T11:13:25;3.53;;;2.03;;
17943;SDS011;9097;47.028;15.444;2022-12-10T11:16:33;2.20;;;1.50;;
17943;SDS011;9097;47.028;15.444;2022-12-10T11:19:36;6.13;;;2.30;;
17943;SDS011;9097;47.028;15.444;2022-12-10T11:22:48;2.37;;;1.43;;
17943;SDS011;9097;47.028;15.444;2022-12-10T11:25:54;4.77;;;2.70;;
17943;SDS011;9097;47.028;15.444;2022-12-10T11:29:06;4.40;;;2.37;;
17943;SDS011;9097;47.028;15.444;2022-12-10T11:35:39;6.17;;;2.70;;
17943;SDS011;9097;47.028;15.444;2022-12-10T11:38:58;4.30;;;2.17;;
17943;SDS011;9097;47.028;15.444;2022-12-10T11:42:08;4.63;;;2.67;;
17943;SDS011;9097;47.028;15.444;2022-12-10T11:45:18;7.27;;;2.73;;
17943;SDS011;9097;47.028;15.444;2022-12-10T11:48:31;6.40;;;2.03;;
17943;SDS011;9097;47.028;15.444;2022-12-10T11:51:45;5.13;;;2.73;;
17943;SDS011;9097;47.028;15.444;2022-12-10T11:54:59;4.57;;;2.50;;
17943;SDS011;9097;47.028;15.444;2022-12-10T11:58:14;4.13;;;2.43;;
17943;SDS011;9097;47.028;15.444;2022-12-10T12:01:32;4.07;;;2.47;;
17943;SDS011;9097;47.028;15.444;2022-12-10T12:04:49;3.83;;;2.10;;
17943;SDS011;9097;47.028;15.444;2022-12-10T12:08:09;5.93;;;3.87;;
17943;SDS011;9097;47.028;15.444;2022-12-10T12:11:27;4.97;;;2.83;;
17943;SDS011;9097;47.028;15.444;2022-12-10T12:14:46;3.80;;;2.03;;
17943;SDS011;9097;47.028;15.444;2022-12-10T12:17:53;4.60;;;2.03;;
17943;SDS011;9097;47.028;15.444;2022-12-10T12:21:02;2.97;;;2.17;;
17943;SDS011;9097;47.028;15.444;2022-12-10T12:24:09;5.17;;;2.63;;
17943;SDS011;9097;47.028;15.444;2022-12-10T12:27:21;3.00;;;2.10;;
17943;SDS011;9097;47.028;15.444;2022-12-10T12:30:30;2.00;;;1.73;;
17943;SDS011;9097;47.028;15.444;2022-12-10T12:33:45;3.77;;;2.77;;
17943;SDS011;9097;47.028;15.444;2022-12-10T12:36:53;2.67;;;1.83;;
17943;SDS011;9097;47.028;15.444;2022-12-10T12:39:58;2.93;;;1.90;;
17943;SDS011;9097;47.028;15.444;2022-12-10T12:43:07;4.53;;;2.27;;
17943;SDS011;9097;47.028;15.444;2022-12-10T12:46:15;5.23;;;2.23;;
17943;SDS011;9097;47.028;15.444;2022-12-10T12:49:24;2.00;;;1.40;;
17943;SDS011;9097;47.028;15.444;2022-12-10T12:52:35;2.20;;;1.33;;
17943;SDS011;9097;47.028;15.444;2022-12-10T12:55:56;3.50;;;2.13;;
17943;SDS011;9097;47.028;15.444;2022-12-10T12:59:05;4.10;;;1.80;;
17943;SDS011;9097;47.028;15.444;2022-12-10T13:02:21;2.10;;;1.60;;
17943;SDS011;9097;47.028;15.444;2022-12-10T13:05:34;1.47;;;1.37;;
17943;SDS011;9097;47.028;15.444;2022-12-10T13:08:44;5.23;;;1.90;;
17943;SDS011;9097;47.028;15.444;2022-12-10T13:12:15;4.27;;;2.37;;
17943;SDS011;9097;47.028;15.444;2022-12-10T13:15:22;3.10;;;1.63;;
17943;SDS011;9097;47.028;15.444;2022-12-10T13:18:44;3.33;;;1.80;;
17943;SDS011;9097;47.028;15.444;2022-12-10T13:21:56;3.47;;;1.50;;
17943;SDS011;9097;47.028;15.444;2022-12-10T13:29:22;5.40;;;2.10;;
17943;SDS011;9097;47.028;15.444;2022-12-10T13:32:41;2.97;;;1.70;;
17943;SDS011;9097;47.028;15.444;2022-12-10T13:35:51;2.83;;;1.27;;
17943;SDS011;9097;47.028;15.444;2022-12-10T13:39:11;2.57;;;1.60;;
17943;SDS011;9097;47.028;15.444;2022-12-10T13:49:44;3.57;;;1.60;;
17943;SDS011;9097;47.028;15.444;2022-12-10T13:52:55;2.13;;;1.83;;
17943;SDS011;9097;47.028;15.444;2022-12-10T13:56:06;2.33;;;1.63;;
17943;SDS011;9097;47.028;15.444;2022-12-10T13:59:22;2.47;;;1.30;;
17943;SDS011;9097;47.028;15.444;2022-12-10T14:02:40;1.53;;;1.43;;
17943;SDS011;9097;47.028;15.444;2022-12-10T14:06:04;4.23;;;1.30;;
17943;SDS011;9097;47.028;15.444;2022-12-10T14:09:19;1.00;;;0.67;;
17943;SDS011;9097;47.028;15.444;2022-12-10T14:12:28;3.40;;;1.73;;
17943;SDS011;9097;47.028;15.444;2022-12-10T14:15:35;1.37;;;1.10;;
17943;SDS011;9097;47.028;15.444;2022-12-10T14:18:41;2.13;;;1.17;;
17943;SDS011;9097;47.028;15.444;2022-12-10T14:21:47;0.87;;;0.83;;
17943;SDS011;9097;47.028;15.444;2022-12-10T14:24:57;1.77;;;1.17;;
17943;SDS011;9097;47.028;15.444;2022-12-10T14:28:11;3.40;;;1.37;;
17943;SDS011;9097;47.028;15.444;2022-12-10T14:31:18;1.47;;;1.10;;
17943;SDS011;9097;47.028;15.444;2022-12-10T14:34:23;1.47;;;1.37;;
17943;SDS011;9097;47.028;15.444;2022-12-10T14:37:29;2.40;;;1.10;;
17943;SDS011;9097;47.028;15.444;2022-12-10T14:40:37;2.00;;;1.60;;
17943;SDS011;9097;47.028;15.444;2022-12-10T14:43:48;2.00;;;1.57;;
17943;SDS011;9097;47.028;15.444;2022-12-10T14:47:12;3.40;;;1.47;;
17943;SDS011;9097;47.028;15.444;2022-12-10T14:50:17;1.30;;;1.20;;
17943;SDS011;9097;47.028;15.444;2022-12-10T14:53:22;1.30;;;1.20;;
17943;SDS011;9097;47.028;15.444;2022-12-10T14:56:28;2.90;;;1.90;;
17943;SDS011;9097;47.028;15.444;2022-12-10T14:59:35;0.93;;;0.73;;
17943;SDS011;9097;47.028;15.444;2022-12-10T15:02:53;2.27;;;1.53;;
17943;SDS011;9097;47.028;15.444;2022-12-10T15:06:06;1.53;;;1.43;;
17943;SDS011;9097;47.028;15.444;2022-12-10T15:09:12;1.50;;;1.30;;
17943;SDS011;9097;47.028;15.444;2022-12-10T15:12:27;4.70;;;1.63;;
17943;SDS011;9097;47.028;15.444;2022-12-10T15:15:36;2.13;;;1.13;;
17943;SDS011;9097;47.028;15.444;2022-12-10T15:18:49;3.33;;;1.60;;
17943;SDS011;9097;47.028;15.444;2022-12-10T15:22:00;2.23;;;1.17;;
17943;SDS011;9097;47.028;15.444;2022-12-10T15:25:24;1.80;;;1.17;;
17943;SDS011;9097;47.028;15.444;2022-12-10T15:28:30;1.47;;;1.13;;
17943;SDS011;9097;47.028;15.444;2022-12-10T15:31:36;1.57;;;0.97;;
17943;SDS011;9097;47.028;15.444;2022-12-10T15:34:52;1.63;;;1.27;;
17943;SDS011;9097;47.028;15.444;2022-12-10T15:38:11;1.00;;;0.53;;
17943;SDS011;9097;47.028;15.444;2022-12-10T15:41:24;3.07;;;1.20;;
17943;SDS011;9097;47.028;15.444;2022-12-10T15:44:54;1.43;;;1.00;;
17943;SDS011;9097;47.028;15.444;2022-12-10T15:48:05;2.30;;;1.90;;
17943;SDS011;9097;47.028;15.444;2022-12-10T15:51:13;1.57;;;1.23;;
17943;SDS011;9097;47.028;15.444;2022-12-10T15:54:27;1.33;;;1.20;;
17943;SDS011;9097;47.028;15.444;2022-12-10T15:57:44;1.33;;;1.13;;
17943;SDS011;9097;47.028;15.444;2022-12-10T16:00:49;6.20;;;2.10;;
17943;SDS011;9097;47.028;15.444;2022-12-10T16:03:52;2.80;;;1.43;;
17943;SDS011;9097;47.028;15.444;2022-12-10T16:06:56;2.30;;;1.20;;
17943;SDS011;9097;47.028;15.444;2022-12-10T16:09:59;3.10;;;1.40;;
17943;SDS011;9097;47.028;15.444;2022-12-10T16:13:03;1.47;;;1.03;;
17943;SDS011;9097;47.028;15.444;2022-12-10T16:16:07;2.03;;;1.30;;
17943;SDS011;9097;47.028;15.444;2022-12-10T16:19:14;3.63;;;1.43;;
17943;SDS011;9097;47.028;15.444;2022-12-10T16:22:19;2.73;;;1.47;;
17943;SDS011;9097;47.028;15.444;2022-12-10T16:25:22;2.43;;;1.70;;
17943;SDS011;9097;47.028;15.444;2022-12-10T16:28:27;3.03;;;2.13;;
17943;SDS011;9097;47.028;15.444;2022-12-10T16:31:30;4.20;;;2.87;;
17943;SDS011;9097;47.028;15.444;2022-12-10T16:34:33;4.53;;;2.33;;
17943;SDS011;9097;47.028;15.444;2022-12-10T16:37:36;3.93;;;2.70;;
17943;SDS011;9097;47.028;15.444;2022-12-10T16:40:39;4.23;;;2.60;;
17943;SDS011;9097;47.028;15.444;2022-12-10T16:43:44;5.80;;;2.87;;
17943;SDS011;9097;47.028;15.444;2022-12-10T16:46:46;2.40;;;2.13;;
17943;SDS011;9097;47.028;15.444;2022-12-10T16:49:49;2.97;;;1.90;;
17943;SDS011;9097;47.028;15.444;2022-12-10T16:52:54;5.33;;;2.50;;
17943;SDS011;9097;47.028;15.444;2022-12-10T16:55:57;1.87;;;1.57;;
17943;SDS011;9097;47.028;15.444;2022-12-10T16:59:01;3.80;;;2.63;;
17943;SDS011;9097;47.028;15.444;2022-12-10T17:02:08;3.07;;;2.03;;
17943;SDS011;9097;47.028;15.444;2022-12-10T17:05:17;5.37;;;3.23;;
17943;SDS011;9097;47.028;15.444;2022-12-10T17:08:27;5.43;;;2.17;;
17943;SDS011;9097;47.028;15.444;2022-12-10T17:11:32;4.77;;;2.63;;
17943;SDS011;9097;47.028;15.444;2022-12-10T17:14:49;6.27;;;2.87;;
17943;SDS011;9097;47.028;15.444;2022-12-10T17:17:51;4.60;;;4.07;;
17943;SDS011;9097;47.028;15.444;2022-12-10T17:20:54;6.03;;;3.40;;
17943;SDS011;9097;47.028;15.444;2022-12-10T17:23:58;4.83;;;2.20;;
17943;SDS011;9097;47.028;15.444;2022-12-10T17:27:02;4.53;;;3.40;;
17943;SDS011;9097;47.028;15.444;2022-12-10T17:30:10;5.10;;;2.50;;
17943;SDS011;9097;47.028;15.444;2022-12-10T17:33:16;4.83;;;2.77;;
17943;SDS011;9097;47.028;15.444;2022-12-10T17:36:21;2.60;;;2.03;;
17943;SDS011;9097;47.028;15.444;2022-12-10T17:39:25;4.50;;;1.90;;
17943;SDS011;9097;47.028;15.444;2022-12-10T17:42:29;3.43;;;2.33;;
17943;SDS011;9097;47.028;15.444;2022-12-10T17:45:32;4.97;;;2.33;;
17943;SDS011;9097;47.028;15.444;2022-12-10T17:48:36;6.93;;;2.33;;
17943;SDS011;9097;47.028;15.444;2022-12-10T17:51:39;4.00;;;1.77;;
17943;SDS011;9097;47.028;15.444;2022-12-10T17:54:46;2.77;;;2.17;;
17943;SDS011;9097;47.028;15.444;2022-12-10T17:57:50;2.47;;;1.60;;
17943;SDS011;9097;47.028;15.444;2022-12-10T18:01:01;3.80;;;2.80;;
17943;SDS011;9097;47.028;15.444;2022-12-10T18:04:14;7.13;;;4.50;;
17943;SDS011;9097;47.028;15.444;2022-12-10T18:07:24;11.73;;;4.07;;
17943;SDS011;9097;47.028;15.444;2022-12-10T18:10:32;8.37;;;3.23;;
17943;SDS011;9097;47.028;15.444;2022-12-10T18:13:46;9.37;;;4.83;;
17943;SDS011;9097;47.028;15.444;2022-12-10T18:17:21;4.23;;;2.40;;
17943;SDS011;9097;47.028;15.444;2022-12-10T18:20:34;6.50;;;3.43;;
17943;SDS011;9097;47.028;15.444;2022-12-10T18:23:48;8.50;;;4.87;;
17943;SDS011;9097;47.028;15.444;2022-12-10T18:26:53;5.83;;;2.77;;
17943;SDS011;9097;47.028;15.444;2022-12-10T18:30:09;13.43;;;4.33;;
17943;SDS011;9097;47.028;15.444;2022-12-10T18:33:41;4.63;;;2.40;;
17943;SDS011;9097;47.028;15.444;2022-12-10T18:37:02;5.60;;;3.57;;
17943;SDS011;9097;47.028;15.444;2022-12-10T18:40:16;4.00;;;3.17;;
17943;SDS011;9097;47.028;15.444;2022-12-10T18:43:25;7.60;;;3.03;;
17943;SDS011;9097;47.028;15.444;2022-12-10T18:46:30;5.87;;;3.10;;
17943;SDS011;9097;47.028;15.444;2022-12-10T18:49:39;2.93;;;1.80;;
17943;SDS011;9097;47.028;15.444;2022-12-10T18:52:48;7.73;;;4.93;;
17943;SDS011;9097;47.028;15.444;2022-12-10T18:55:54;2.00;;;1.63;;